Howe, Texas
Current Conditions -  °F | °C
As of 8:15 AM on Saturday 25 Oct 2014 (Local Time) from KGYI Reporting Station
Clear Clear  
Wind Chill: 65°   Ceiling: Unl
Heat Index: 65°   Visibility: 10mi
Dew Point: 60°   Wind: 9mph
Humidity: 84%   Direction: 190°S
Pressure: 30.12"   Gusts: NA
Location:  33.51°N, 96.61°W
Report Text: KGYI 251315Z AUTO 19008KT 10SM CLR 19/16 A3012 RMK AO2 T01850157
Loading
Personal Weather Stations






























Interactive Weather Map
Tropical Storm Tracking
New forecast layout! Learn more

10-Day Weather Forecast

Advertisements
Track Severe Weather on mobile